createdAt,value
2022-09-27T00:00:48.270Z,1.45
2022-09-27T00:03:16.388Z,1.50
2022-09-27T00:05:44.572Z,1.48
2022-09-27T00:08:15.042Z,1.05
2022-09-27T00:10:43.167Z,1.35
2022-09-27T00:13:11.390Z,1.27
2022-09-27T00:15:39.644Z,1.25
2022-09-27T00:18:09.323Z,1.50
2022-09-27T00:20:37.401Z,1.50
2022-09-27T00:23:05.493Z,1.70
2022-09-27T00:25:34.984Z,1.40
2022-09-27T00:28:03.314Z,1.27
2022-09-27T00:30:31.500Z,1.80
2022-09-27T00:33:00.732Z,1.08
2022-09-27T00:35:28.697Z,1.25
2022-09-27T00:37:56.854Z,1.58
2022-09-27T00:40:25.154Z,1.40
2022-09-27T00:42:54.824Z,1.48
2022-09-27T00:45:23.080Z,1.63
2022-09-27T00:47:53.420Z,1.35
2022-09-27T00:50:26.952Z,1.20
2022-09-27T00:53:05.578Z,1.33
2022-09-27T00:55:36.603Z,1.48
2022-09-27T00:58:06.472Z,1.30
2022-09-27T01:00:34.780Z,1.52
2022-09-27T01:03:05.509Z,1.33
2022-09-27T01:05:33.699Z,1.20
2022-09-27T01:08:02.145Z,1.10
2022-09-27T01:10:33.347Z,1.23
2022-09-27T01:13:11.186Z,1.20
2022-09-27T01:15:44.448Z,1.00
2022-09-27T01:18:21.852Z,1.33
2022-09-27T01:21:22.350Z,1.20
2022-09-27T01:24:08.959Z,1.30
2022-09-27T01:26:53.185Z,1.50
2022-09-27T01:29:31.460Z,1.40
2022-09-27T01:32:04.327Z,1.50
2022-09-27T01:37:09.036Z,1.30
2022-09-27T01:39:44.096Z,1.52
2022-09-27T01:42:33.383Z,1.40
2022-09-27T01:45:07.295Z,1.67
2022-09-27T01:47:47.900Z,1.65
2022-09-27T01:50:39.960Z,1.60
2022-09-27T01:53:10.690Z,2.00
2022-09-27T01:55:54.291Z,1.60
2022-09-27T01:58:53.732Z,1.75
2022-09-27T02:01:23.677Z,1.60
2022-09-27T02:03:57.455Z,1.63
2022-09-27T02:06:46.635Z,1.80
2022-09-27T02:09:24.754Z,1.77
2022-09-27T02:12:03.940Z,1.60
2022-09-27T02:14:34.828Z,1.63
2022-09-27T02:17:10.003Z,1.63
2022-09-27T02:19:49.137Z,1.45
2022-09-27T02:24:55.719Z,1.58
2022-09-27T02:27:25.659Z,1.65
2022-09-27T02:29:59.644Z,1.77
2022-09-27T02:32:28.200Z,1.63
2022-09-27T02:34:58.782Z,1.50
2022-09-27T02:37:26.840Z,1.50
2022-09-27T02:39:55.051Z,1.75
2022-09-27T02:42:23.308Z,1.75
2022-09-27T02:44:52.633Z,1.70
2022-09-27T02:47:30.319Z,1.75
2022-09-27T02:50:12.469Z,1.70
2022-09-27T02:53:23.585Z,1.60
2022-09-27T02:56:03.920Z,1.80
2022-09-27T02:58:59.583Z,1.52
2022-09-27T03:01:49.015Z,1.67
2022-09-27T03:04:31.555Z,1.90
2022-09-27T03:07:01.687Z,1.92
2022-09-27T03:09:31.277Z,1.80
2022-09-27T03:11:59.392Z,2.00
2022-09-27T03:14:27.387Z,2.00
2022-09-27T03:17:03.882Z,2.05
2022-09-27T03:20:04.394Z,2.05
2022-09-27T03:22:57.450Z,2.08
2022-09-27T03:25:25.724Z,2.35
2022-09-27T03:27:54.004Z,2.40
2022-09-27T03:30:22.212Z,2.40
2022-09-27T03:32:50.644Z,2.53
2022-09-27T03:35:37.267Z,2.30
2022-09-27T03:38:07.855Z,2.38
2022-09-27T03:40:36.291Z,2.08
2022-09-27T03:43:04.404Z,2.45
2022-09-27T03:45:34.164Z,2.42
2022-09-27T03:48:06.509Z,2.50
2022-09-27T03:50:35.332Z,2.55
2022-09-27T03:53:03.455Z,2.78
2022-09-27T03:55:33.239Z,2.22
2022-09-27T03:58:01.514Z,2.80
2022-09-27T04:00:32.630Z,2.63
2022-09-27T04:03:01.608Z,2.70
2022-09-27T04:05:30.235Z,2.63
2022-09-27T04:08:02.692Z,2.58
2022-09-27T04:10:34.592Z,2.63
2022-09-27T04:13:02.639Z,2.80
2022-09-27T04:15:35.451Z,2.95
2022-09-27T04:18:22.143Z,2.97
2022-09-27T04:20:50.163Z,2.50
2022-09-27T04:23:20.646Z,2.83
2022-09-27T04:25:54.182Z,2.97
2022-09-27T04:28:42.136Z,2.88
2022-09-27T04:31:10.359Z,3.20
2022-09-27T04:33:52.223Z,3.08
2022-09-27T04:36:28.924Z,3.05
2022-09-27T04:39:08.671Z,2.95
2022-09-27T04:41:45.036Z,3.28
2022-09-27T04:44:13.538Z,3.03
2022-09-27T04:46:48.083Z,2.97
2022-09-27T04:49:17.790Z,3.05
2022-09-27T04:51:46.632Z,3.22
2022-09-27T04:54:14.705Z,3.00
2022-09-27T04:56:53.103Z,2.83
2022-09-27T04:59:21.575Z,3.08
2022-09-27T05:01:50.245Z,2.80
2022-09-27T05:04:30.848Z,3.10
2022-09-27T05:06:59.059Z,2.75
2022-09-27T05:09:36.366Z,2.80
2022-09-27T05:12:07.766Z,3.03
2022-09-27T05:14:38.603Z,3.35
2022-09-27T05:17:32.591Z,2.90
2022-09-27T05:20:19.299Z,3.05
2022-09-27T05:23:16.403Z,3.33
2022-09-27T05:25:44.724Z,5.38
2022-09-27T05:28:14.478Z,2.88
2022-09-27T05:30:43.049Z,3.83
2022-09-27T05:33:17.922Z,3.30
2022-09-27T05:35:53.572Z,4.40
2022-09-27T05:38:24.254Z,4.32
2022-09-27T05:40:56.741Z,3.30
2022-09-27T05:43:28.343Z,7.22
2022-09-27T05:45:58.809Z,3.35
2022-09-27T05:48:28.503Z,5.15
2022-09-27T05:51:02.067Z,2.78
2022-09-27T05:53:32.679Z,4.40
2022-09-27T05:56:04.146Z,2.85
2022-09-27T05:58:51.771Z,3.03
2022-09-27T06:01:20.608Z,3.05
2022-09-27T06:06:50.407Z,2.63
2022-09-27T06:09:18.794Z,2.85
2022-09-27T06:11:48.654Z,2.78
2022-09-27T06:14:19.547Z,2.42
2022-09-27T06:17:01.967Z,2.72
2022-09-27T06:19:34.029Z,2.65
2022-09-27T06:22:02.112Z,2.63
2022-09-27T06:24:39.198Z,2.20
2022-09-27T06:27:14.361Z,2.50
2022-09-27T06:29:58.075Z,3.28
2022-09-27T06:32:44.945Z,2.97
2022-09-27T06:35:27.288Z,2.30
2022-09-27T06:37:55.721Z,2.78
2022-09-27T06:40:27.082Z,2.72
2022-09-27T06:43:13.116Z,2.70
2022-09-27T06:46:12.199Z,2.60
2022-09-27T06:48:56.859Z,2.85
2022-09-27T06:51:25.122Z,2.55
2022-09-27T06:53:53.178Z,2.35
2022-09-27T06:56:21.518Z,2.65
2022-09-27T06:59:09.607Z,3.03
2022-09-27T07:01:45.575Z,2.90
2022-09-27T07:04:32.180Z,3.30
2022-09-27T07:07:06.256Z,3.70
2022-09-27T07:09:40.234Z,3.15
2022-09-27T07:12:08.818Z,2.97
2022-09-27T07:14:36.916Z,2.65
2022-09-27T07:17:08.446Z,2.70
2022-09-27T07:19:42.845Z,2.78
2022-09-27T07:22:12.050Z,2.58
2022-09-27T07:24:41.815Z,2.42
2022-09-27T07:27:10.114Z,2.33
2022-09-27T07:29:38.210Z,2.63
2022-09-27T07:32:07.696Z,2.58
2022-09-27T07:34:37.614Z,2.70
2022-09-27T07:37:05.825Z,2.50
2022-09-27T07:39:38.848Z,2.50
2022-09-27T07:42:07.259Z,2.50
2022-09-27T07:44:38.728Z,2.75
2022-09-27T07:47:22.123Z,2.60
2022-09-27T07:50:22.778Z,2.13
2022-09-27T07:52:57.677Z,2.33
2022-09-27T07:55:58.953Z,2.60
2022-09-27T07:58:30.498Z,2.30
2022-09-27T08:01:02.583Z,2.35
2022-09-27T08:03:32.444Z,2.40
2022-09-27T08:06:04.095Z,2.05
2022-09-27T08:08:32.492Z,2.10
2022-09-27T08:11:01.621Z,2.00
2022-09-27T08:13:30.301Z,2.17
2022-09-27T08:16:03.067Z,2.53
2022-09-27T08:18:41.516Z,2.70
2022-09-27T08:21:28.044Z,2.50
2022-09-27T08:24:31.329Z,2.90
2022-09-27T08:27:17.878Z,2.85
2022-09-27T08:29:52.110Z,2.53
2022-09-27T08:32:23.310Z,2.47
2022-09-27T08:34:53.754Z,2.70
2022-09-27T08:37:23.428Z,2.35
2022-09-27T08:39:51.697Z,3.00
2022-09-27T08:42:29.395Z,2.97
2022-09-27T08:45:04.336Z,2.70
2022-09-27T08:47:37.168Z,2.90
2022-09-27T08:50:15.966Z,3.05
2022-09-27T08:52:46.813Z,2.50
2022-09-27T08:55:27.683Z,2.45
2022-09-27T08:57:58.349Z,2.42
2022-09-27T09:00:30.212Z,2.55
2022-09-27T09:02:59.099Z,2.55
2022-09-27T09:05:33.490Z,2.78
2022-09-27T09:08:18.501Z,2.97
2022-09-27T09:11:09.727Z,2.63
2022-09-27T09:13:51.475Z,2.90
2022-09-27T09:16:28.634Z,2.83
2022-09-27T09:19:05.756Z,2.47
2022-09-27T09:21:49.145Z,2.80
2022-09-27T09:24:26.145Z,2.97
2022-09-27T09:26:59.762Z,3.78
2022-09-27T09:29:51.806Z,3.28
2022-09-27T09:32:25.533Z,3.10
2022-09-27T09:34:55.924Z,3.05
2022-09-27T09:37:34.935Z,2.90
2022-09-27T09:40:09.302Z,3.10
2022-09-27T09:42:41.230Z,3.03
2022-09-27T09:45:16.679Z,3.50
2022-09-27T09:47:47.583Z,3.17
2022-09-27T09:50:18.899Z,3.70
2022-09-27T09:52:51.711Z,3.47
2022-09-27T09:55:21.661Z,3.78
2022-09-27T09:58:00.448Z,3.72
2022-09-27T10:00:32.719Z,3.53
2022-09-27T10:03:02.112Z,3.40
2022-09-27T10:05:32.356Z,3.45
2022-09-27T10:08:08.469Z,3.42
2022-09-27T10:10:37.481Z,3.38
2022-09-27T10:13:12.227Z,2.65
2022-09-27T10:15:40.709Z,3.10
2022-09-27T10:18:13.773Z,2.53
2022-09-27T10:20:46.831Z,2.83
2022-09-27T10:23:19.539Z,2.55
2022-09-27T10:26:09.073Z,2.60
2022-09-27T10:28:50.951Z,2.50
2022-09-27T10:31:24.311Z,2.25
2022-09-27T10:34:19.511Z,2.00
2022-09-27T10:37:05.334Z,2.00
2022-09-27T10:39:37.231Z,2.10
2022-09-27T10:42:21.468Z,2.25
2022-09-27T10:44:50.138Z,2.03
2022-09-27T10:47:31.295Z,2.00
2022-09-27T10:50:49.852Z,2.22
2022-09-27T10:53:28.436Z,1.95
2022-09-27T10:56:06.797Z,1.80
2022-09-27T10:58:37.307Z,2.30
2022-09-27T11:01:08.672Z,2.15
2022-09-27T11:03:53.485Z,1.90
2022-09-27T11:06:29.692Z,2.30
2022-09-27T11:09:12.000Z,2.13
2022-09-27T11:11:41.574Z,1.87
2022-09-27T11:14:19.212Z,2.35
2022-09-27T11:16:52.237Z,2.15
2022-09-27T11:19:37.365Z,2.03
2022-09-27T11:22:10.834Z,2.13
2022-09-27T11:24:49.406Z,2.38
2022-09-27T11:27:31.633Z,2.20
2022-09-27T11:30:06.513Z,2.30
2022-09-27T11:32:53.343Z,2.00
2022-09-27T11:35:34.936Z,2.03
2022-09-27T11:38:25.050Z,2.10
2022-09-27T11:41:11.316Z,2.13
2022-09-27T11:44:14.728Z,2.08
2022-09-27T11:46:43.116Z,2.10
2022-09-27T11:49:29.894Z,1.90
2022-09-27T11:52:27.305Z,1.70
2022-09-27T11:55:12.561Z,1.90
2022-09-27T11:57:44.223Z,2.05
2022-09-27T12:00:21.552Z,2.30
2022-09-27T12:03:53.550Z,1.02
2022-09-27T12:06:26.724Z,0.80
2022-09-27T12:09:03.769Z,0.63
2022-09-27T12:11:37.932Z,0.70
2022-09-27T12:14:12.158Z,0.60
2022-09-27T12:16:43.152Z,0.85
2022-09-27T12:19:18.175Z,0.90
2022-09-27T12:22:14.081Z,0.88
2022-09-27T12:24:45.226Z,0.90
2022-09-27T12:27:48.680Z,0.82
2022-09-27T12:30:20.745Z,0.77
2022-09-27T12:32:58.138Z,0.80
2022-09-27T12:35:28.994Z,0.98
2022-09-27T12:38:00.681Z,0.82
2022-09-27T12:40:30.898Z,0.70
2022-09-27T12:43:04.240Z,0.90
2022-09-27T12:45:50.700Z,0.90
2022-09-27T12:48:26.086Z,1.00
2022-09-27T12:50:56.845Z,0.95
2022-09-27T12:53:27.549Z,0.80
2022-09-27T12:56:09.363Z,1.00
2022-09-27T12:58:57.729Z,1.00
2022-09-27T13:01:37.949Z,0.85
2022-09-27T13:04:25.611Z,1.05
2022-09-27T13:07:07.898Z,0.80
2022-09-27T13:10:07.275Z,1.15
2022-09-27T13:12:38.466Z,1.00
2022-09-27T13:15:13.796Z,1.10
2022-09-27T13:17:53.160Z,1.13
2022-09-27T13:20:46.410Z,1.20
2022-09-27T13:24:01.279Z,1.20
2022-09-27T13:26:48.505Z,1.10
2022-09-27T13:29:37.680Z,1.13
2022-09-27T13:32:20.731Z,1.10
2022-09-27T13:35:21.241Z,1.20
2022-09-27T13:38:22.686Z,1.40
2022-09-27T13:40:51.514Z,0.90
2022-09-27T13:43:41.965Z,0.90
2022-09-27T13:46:37.430Z,1.23
2022-09-27T13:49:15.540Z,0.80
2022-09-27T13:52:20.843Z,0.85
2022-09-27T13:54:59.748Z,1.05
2022-09-27T13:57:48.720Z,1.27
2022-09-27T14:00:22.394Z,1.10
2022-09-27T14:03:00.925Z,0.90
2022-09-27T14:05:37.637Z,0.90
2022-09-27T14:08:06.595Z,0.75
2022-09-27T14:10:37.551Z,0.38
2022-09-27T14:13:08.107Z,0.40
2022-09-27T14:15:46.078Z,0.50
2022-09-27T14:18:14.950Z,0.60
2022-09-27T14:20:45.302Z,0.63
2022-09-27T14:23:27.394Z,0.55
2022-09-27T14:25:58.661Z,0.30
2022-09-27T14:28:28.941Z,0.50
2022-09-27T14:31:17.742Z,0.43
2022-09-27T14:34:08.190Z,0.40
2022-09-27T14:36:52.700Z,0.70
2022-09-27T14:39:24.042Z,0.65
2022-09-27T14:41:54.966Z,0.30
2022-09-27T14:44:27.926Z,0.90
2022-09-27T14:47:10.143Z,0.60
2022-09-27T14:49:49.427Z,1.00
2022-09-27T14:52:21.425Z,0.47
2022-09-27T14:54:58.214Z,0.70
2022-09-27T14:57:28.703Z,0.70
2022-09-27T14:59:58.098Z,0.82
2022-09-27T15:02:26.998Z,0.65
2022-09-27T15:04:55.285Z,0.73
2022-09-27T15:07:23.492Z,0.73
2022-09-27T15:09:52.517Z,1.33
2022-09-27T15:12:26.247Z,0.70
2022-09-27T15:14:59.212Z,0.80
2022-09-27T15:20:00.096Z,1.00
2022-09-27T15:22:35.758Z,0.80
2022-09-27T15:25:17.188Z,0.88
2022-09-27T15:27:55.273Z,0.68
2022-09-27T15:30:30.258Z,1.00
2022-09-27T15:32:58.494Z,0.80
2022-09-27T15:35:29.987Z,1.00
2022-09-27T15:38:28.335Z,1.00
2022-09-27T15:41:08.090Z,0.55
2022-09-27T15:43:39.460Z,0.80
2022-09-27T15:46:29.593Z,0.60
2022-09-27T15:49:21.041Z,0.60
2022-09-27T15:51:49.928Z,0.50
2022-09-27T15:54:19.595Z,0.80
2022-09-27T15:56:49.626Z,0.70
2022-09-27T15:59:22.225Z,0.85
2022-09-27T16:01:52.812Z,0.80
2022-09-27T16:04:20.743Z,0.93
2022-09-27T16:06:48.654Z,0.80
2022-09-27T16:09:18.855Z,0.98
2022-09-27T16:11:46.877Z,1.20
2022-09-27T16:14:18.206Z,1.10
2022-09-27T16:16:46.933Z,1.10
2022-09-27T16:19:16.293Z,0.90
2022-09-27T16:21:44.184Z,0.95
2022-09-27T16:24:12.159Z,0.70
2022-09-27T16:26:40.348Z,1.17
2022-09-27T16:29:11.270Z,1.20
2022-09-27T16:31:40.017Z,0.90
2022-09-27T16:34:09.942Z,0.63
2022-09-27T16:36:39.351Z,0.80
2022-09-27T16:39:10.105Z,0.75
2022-09-27T16:41:38.245Z,0.85
2022-09-27T16:44:09.691Z,0.90
2022-09-27T16:46:38.736Z,1.17
2022-09-27T16:49:26.805Z,1.27
2022-09-27T16:52:00.813Z,0.88
2022-09-27T16:54:29.274Z,0.85
2022-09-27T16:56:57.428Z,1.00
2022-09-27T16:59:25.819Z,0.90
2022-09-27T17:01:58.063Z,0.90
2022-09-27T17:04:27.395Z,0.88
2022-09-27T17:06:57.524Z,1.20
2022-09-27T17:09:25.816Z,0.60
2022-09-27T17:11:55.438Z,0.82
2022-09-27T17:14:23.793Z,0.90
2022-09-27T17:16:52.041Z,1.00
2022-09-27T17:19:20.228Z,0.55
2022-09-27T17:21:48.437Z,0.70
2022-09-27T17:24:18.110Z,1.45
2022-09-27T17:26:46.102Z,0.80
2022-09-27T17:29:14.793Z,0.80
2022-09-27T17:31:44.490Z,0.88
2022-09-27T17:34:13.750Z,0.93
2022-09-27T17:36:43.174Z,0.68
2022-09-27T17:39:13.091Z,0.60
2022-09-27T17:41:42.371Z,0.70
2022-09-27T17:44:13.268Z,0.80
2022-09-27T17:46:41.685Z,0.80
2022-09-27T17:49:28.022Z,0.90
2022-09-27T17:51:55.899Z,0.80
2022-09-27T17:54:27.719Z,0.80
2022-09-27T17:56:57.306Z,0.98
2022-09-27T17:59:25.971Z,1.13
2022-09-27T18:01:53.949Z,1.25
2022-09-27T18:04:22.374Z,0.77
2022-09-27T18:06:50.316Z,0.60
2022-09-27T18:09:19.683Z,0.50
2022-09-27T18:11:49.094Z,0.50
2022-09-27T18:14:18.724Z,0.73
2022-09-27T18:16:46.623Z,0.80
2022-09-27T18:19:17.160Z,0.80
2022-09-27T18:21:45.371Z,0.80
2022-09-27T18:24:14.125Z,1.35
2022-09-27T18:26:42.298Z,0.73
2022-09-27T18:29:12.325Z,0.90
2022-09-27T18:31:47.495Z,0.80
2022-09-27T18:34:17.132Z,1.00
2022-09-27T18:36:45.248Z,1.38
2022-09-27T18:39:17.314Z,1.38
2022-09-27T18:41:45.493Z,1.63
2022-09-27T18:44:14.938Z,1.25
2022-09-27T18:46:44.455Z,1.92
2022-09-27T18:49:14.130Z,1.95
2022-09-27T18:51:44.472Z,1.90
2022-09-27T18:54:15.596Z,1.80
2022-09-27T18:56:43.598Z,1.70
2022-09-27T18:59:11.937Z,2.00
2022-09-27T19:01:43.609Z,1.80
2022-09-27T19:04:14.574Z,2.20
2022-09-27T19:06:42.852Z,1.90
2022-09-27T19:09:12.335Z,3.08
2022-09-27T19:11:40.263Z,2.10
2022-09-27T19:14:08.201Z,2.67
2022-09-27T19:16:36.167Z,2.38
2022-09-27T19:19:04.122Z,2.75
2022-09-27T19:21:33.352Z,2.75
2022-09-27T19:24:01.306Z,2.80
2022-09-27T19:26:29.746Z,2.90
2022-09-27T19:28:58.908Z,2.67
2022-09-27T19:31:29.492Z,3.28
2022-09-27T19:34:00.535Z,3.90
2022-09-27T19:36:29.517Z,3.38
2022-09-27T19:38:59.160Z,3.10
2022-09-27T19:41:27.518Z,3.65
2022-09-27T19:43:56.019Z,3.45
2022-09-27T19:46:24.757Z,3.30
2022-09-27T19:48:53.019Z,3.75
2022-09-27T19:51:22.193Z,3.13
2022-09-27T19:53:50.652Z,3.70
2022-09-27T19:56:20.371Z,3.45
2022-09-27T19:58:48.304Z,3.80
2022-09-27T20:01:19.168Z,3.53
2022-09-27T20:03:48.007Z,3.33
2022-09-27T20:06:17.561Z,3.30
2022-09-27T20:08:47.786Z,4.20
2022-09-27T20:11:17.134Z,3.70
2022-09-27T20:13:46.660Z,3.35
2022-09-27T20:16:16.294Z,3.75
2022-09-27T20:18:45.694Z,3.33
2022-09-27T20:21:14.383Z,3.60
2022-09-27T20:23:42.636Z,3.20
2022-09-27T20:26:11.872Z,3.25
2022-09-27T20:28:41.964Z,3.42
2022-09-27T20:31:12.321Z,3.10
2022-09-27T20:33:43.803Z,3.75
2022-09-27T20:36:13.465Z,3.13
2022-09-27T20:38:42.099Z,3.35
2022-09-27T20:41:10.486Z,3.50
2022-09-27T20:43:38.556Z,3.15
2022-09-27T20:46:08.429Z,3.47
2022-09-27T20:48:38.447Z,3.28
2022-09-27T20:51:06.988Z,3.22
2022-09-27T20:53:35.579Z,3.45
2022-09-27T20:56:03.668Z,3.45
2022-09-27T20:58:32.465Z,3.05
2022-09-27T21:01:06.308Z,3.20
2022-09-27T21:03:34.390Z,2.72
2022-09-27T21:06:05.087Z,3.40
2022-09-27T21:08:34.305Z,3.58
2022-09-27T21:11:10.399Z,3.03
2022-09-27T21:13:39.779Z,3.40
2022-09-27T21:16:09.490Z,3.28
2022-09-27T21:18:37.685Z,3.33
2022-09-27T21:21:08.918Z,3.92
2022-09-27T21:23:42.058Z,3.70
2022-09-27T21:26:14.047Z,3.45
2022-09-27T21:28:43.336Z,3.70
2022-09-27T21:31:12.750Z,3.60
2022-09-27T21:33:41.167Z,3.72
2022-09-27T21:36:12.733Z,4.32
2022-09-27T21:38:40.818Z,3.97
2022-09-27T21:41:11.393Z,4.35
2022-09-27T21:43:40.796Z,4.05
2022-09-27T21:46:10.808Z,4.88
2022-09-27T21:48:40.218Z,4.90
2022-09-27T21:51:11.424Z,4.70
2022-09-27T21:53:41.922Z,6.68
2022-09-27T21:56:10.666Z,9.23
2022-09-27T21:58:40.322Z,6.63
2022-09-27T22:01:10.091Z,5.25
2022-09-27T22:03:38.315Z,5.47
2022-09-27T22:06:07.309Z,5.57
2022-09-27T22:08:36.492Z,5.65
2022-09-27T22:11:05.082Z,4.65
2022-09-27T22:13:33.378Z,4.95
2022-09-27T22:16:04.461Z,5.13
2022-09-27T22:18:34.749Z,4.85
2022-09-27T22:21:03.850Z,4.80
2022-09-27T22:23:31.775Z,5.30
2022-09-27T22:26:01.846Z,2.97
2022-09-27T22:28:30.161Z,2.25
2022-09-27T22:30:57.976Z,2.08
2022-09-27T22:33:25.990Z,1.17
2022-09-27T22:35:53.782Z,1.70
2022-09-27T22:38:21.647Z,1.23
2022-09-27T22:40:56.305Z,1.20
2022-09-27T22:43:26.200Z,1.00
2022-09-27T22:45:54.010Z,1.10
2022-09-27T22:48:21.834Z,0.90
2022-09-27T22:50:49.663Z,1.20
2022-09-27T22:53:17.661Z,1.40
2022-09-27T22:55:45.743Z,1.10
2022-09-27T22:58:13.557Z,1.40
2022-09-27T23:00:45.299Z,1.25
2022-09-27T23:03:13.304Z,1.00
2022-09-27T23:05:41.231Z,1.40
2022-09-27T23:08:09.183Z,1.30
2022-09-27T23:10:37.820Z,1.10
2022-09-27T23:13:05.689Z,1.13
2022-09-27T23:15:33.720Z,1.48
2022-09-27T23:18:03.078Z,1.33
2022-09-27T23:20:30.902Z,1.48
2022-09-27T23:22:59.154Z,1.95
2022-09-27T23:25:27.119Z,1.85
2022-09-27T23:27:54.933Z,2.70
2022-09-27T23:30:25.869Z,2.58
2022-09-27T23:32:55.422Z,3.35
2022-09-27T23:35:26.638Z,3.50
2022-09-27T23:37:57.717Z,3.50
2022-09-27T23:40:25.694Z,4.13
2022-09-27T23:42:53.535Z,4.20
2022-09-27T23:45:21.359Z,4.50
2022-09-27T23:47:49.161Z,4.15
2022-09-27T23:50:17.163Z,4.40
2022-09-27T23:52:46.867Z,4.65
2022-09-27T23:55:14.910Z,3.92
2022-09-27T23:57:42.835Z,4.22
